createdAt,value
2022-10-10T00:01:33.420Z,4.40
2022-10-10T00:04:02.116Z,4.40
2022-10-10T00:06:33.007Z,4.20
2022-10-10T00:09:01.910Z,4.10
2022-10-10T00:11:30.262Z,4.10
2022-10-10T00:13:58.258Z,3.90
2022-10-10T00:16:26.123Z,3.80
2022-10-10T00:18:53.962Z,3.90
2022-10-10T00:21:21.481Z,3.90
2022-10-10T00:23:48.976Z,3.80
2022-10-10T00:26:19.293Z,3.80
2022-10-10T00:28:48.107Z,3.70
2022-10-10T00:31:16.536Z,3.70
2022-10-10T00:33:44.308Z,3.60
2022-10-10T00:36:11.948Z,3.60
2022-10-10T00:38:39.532Z,3.60
2022-10-10T00:41:13.190Z,3.70
2022-10-10T00:43:40.940Z,3.80
2022-10-10T00:46:08.565Z,3.90
2022-10-10T00:48:44.541Z,3.90
2022-10-10T00:51:15.567Z,3.80
2022-10-10T00:53:50.983Z,3.90
2022-10-10T00:56:25.353Z,3.70
2022-10-10T00:58:56.953Z,3.80
2022-10-10T01:01:24.511Z,3.90
2022-10-10T01:03:54.527Z,3.70
2022-10-10T01:07:00.144Z,3.60
2022-10-10T01:09:47.872Z,3.50
2022-10-10T01:12:42.842Z,3.50
2022-10-10T01:15:18.905Z,3.40
2022-10-10T01:18:02.544Z,3.30
2022-10-10T01:20:42.039Z,3.40
2022-10-10T01:23:52.804Z,3.50
2022-10-10T01:26:51.613Z,3.50
2022-10-10T01:29:36.922Z,3.50
2022-10-10T01:32:26.879Z,3.40
2022-10-10T01:35:18.841Z,3.30
2022-10-10T01:37:58.381Z,3.20
2022-10-10T01:40:42.862Z,3.10
2022-10-10T01:43:12.005Z,3.10
2022-10-10T01:45:47.041Z,3.20
2022-10-10T01:48:16.189Z,3.20
2022-10-10T01:51:16.208Z,3.10
2022-10-10T01:53:58.452Z,3.10
2022-10-10T01:56:55.881Z,3.30
2022-10-10T01:59:54.741Z,3.50
2022-10-10T02:03:19.114Z,3.70
2022-10-10T02:06:10.562Z,3.60
2022-10-10T02:08:48.920Z,3.50
2022-10-10T02:11:16.596Z,3.40
2022-10-10T02:13:54.728Z,3.30
2022-10-10T02:16:34.097Z,3.30
2022-10-10T02:19:03.854Z,3.30
2022-10-10T02:21:32.838Z,3.40
2022-10-10T02:24:05.156Z,3.30
2022-10-10T02:26:33.912Z,3.30
2022-10-10T02:29:05.401Z,3.40
2022-10-10T02:31:49.400Z,3.30
2022-10-10T02:34:27.861Z,3.30
2022-10-10T02:37:01.552Z,3.30
2022-10-10T02:39:35.266Z,3.10
2022-10-10T02:42:07.476Z,3.10
2022-10-10T02:44:36.045Z,3.00
2022-10-10T02:47:04.151Z,3.00
2022-10-10T02:49:34.240Z,2.90
2022-10-10T02:52:03.277Z,2.90
2022-10-10T02:54:30.838Z,3.00
2022-10-10T02:56:58.325Z,3.00
2022-10-10T02:59:25.908Z,3.00
2022-10-10T03:01:53.385Z,2.90
2022-10-10T03:04:20.874Z,3.00
2022-10-10T03:06:48.408Z,3.20
2022-10-10T03:09:15.910Z,3.20
2022-10-10T03:11:43.522Z,3.30
2022-10-10T03:14:10.999Z,3.30
2022-10-10T03:16:38.498Z,3.20
2022-10-10T03:19:08.514Z,3.10
2022-10-10T03:21:38.811Z,3.10
2022-10-10T03:24:06.496Z,3.00
2022-10-10T03:26:34.310Z,3.10
2022-10-10T03:29:05.557Z,3.10
2022-10-10T03:31:33.157Z,3.00
2022-10-10T03:34:00.779Z,2.90
2022-10-10T03:36:28.530Z,3.00
2022-10-10T03:38:56.053Z,3.10
2022-10-10T03:41:23.481Z,3.20
2022-10-10T03:43:51.163Z,3.10
2022-10-10T03:46:18.819Z,3.10
2022-10-10T03:48:46.292Z,3.10
2022-10-10T03:51:14.016Z,3.10
2022-10-10T03:53:41.606Z,3.20
2022-10-10T03:56:09.212Z,3.20
2022-10-10T03:58:36.720Z,3.20
2022-10-10T04:01:05.702Z,3.20
2022-10-10T04:03:33.700Z,3.10
2022-10-10T04:06:01.340Z,3.10
2022-10-10T04:08:30.175Z,3.20
2022-10-10T04:10:57.664Z,3.00
2022-10-10T04:13:26.083Z,2.90
2022-10-10T04:15:55.876Z,2.90
2022-10-10T04:18:24.850Z,2.90
2022-10-10T04:20:52.482Z,3.00
2022-10-10T04:23:20.247Z,3.00
2022-10-10T04:25:51.633Z,2.90
2022-10-10T04:28:19.437Z,2.80
2022-10-10T04:30:47.216Z,2.80
2022-10-10T04:33:14.787Z,2.80
2022-10-10T04:35:42.387Z,2.80
2022-10-10T04:38:10.032Z,2.70
2022-10-10T04:40:38.204Z,2.70
2022-10-10T04:43:05.658Z,2.60
2022-10-10T04:45:37.353Z,2.80
2022-10-10T04:48:05.635Z,2.70
2022-10-10T04:50:33.848Z,2.60
2022-10-10T04:53:01.354Z,2.60
2022-10-10T04:55:28.925Z,2.50
2022-10-10T04:57:56.536Z,2.60
2022-10-10T05:00:24.041Z,2.60
2022-10-10T05:02:51.961Z,2.70
2022-10-10T05:05:19.696Z,2.90
2022-10-10T05:07:49.663Z,2.90
2022-10-10T05:10:19.366Z,2.80
2022-10-10T05:12:46.850Z,2.80
2022-10-10T05:15:14.751Z,2.70
2022-10-10T05:17:42.263Z,2.70
2022-10-10T05:20:10.283Z,2.60
2022-10-10T05:22:37.749Z,2.70
2022-10-10T05:25:05.666Z,2.70
2022-10-10T05:27:33.191Z,2.60
2022-10-10T05:30:00.675Z,2.90
2022-10-10T05:32:28.156Z,3.00
2022-10-10T05:34:55.638Z,3.00
2022-10-10T05:37:23.127Z,3.10
2022-10-10T05:39:54.556Z,3.10
2022-10-10T05:42:22.379Z,3.00
2022-10-10T05:44:49.893Z,3.10
2022-10-10T05:47:18.027Z,3.20
2022-10-10T05:49:45.504Z,3.20
2022-10-10T05:52:13.103Z,3.30
2022-10-10T05:54:40.690Z,3.30
2022-10-10T05:57:09.824Z,3.30
2022-10-10T05:59:40.377Z,3.30
2022-10-10T06:02:07.958Z,3.50
2022-10-10T06:04:35.477Z,3.50
2022-10-10T06:07:02.946Z,3.60
2022-10-10T06:09:30.474Z,3.70
2022-10-10T06:11:57.911Z,3.90
2022-10-10T06:14:25.489Z,4.00
2022-10-10T06:16:52.913Z,4.10
2022-10-10T06:19:20.918Z,4.20
2022-10-10T06:21:49.954Z,4.30
2022-10-10T06:24:17.409Z,4.40
2022-10-10T06:26:44.899Z,4.50
2022-10-10T06:29:12.393Z,4.60
2022-10-10T06:31:41.482Z,4.60
2022-10-10T06:34:08.971Z,4.70
2022-10-10T06:36:36.472Z,4.80
2022-10-10T06:39:04.320Z,4.90
2022-10-10T06:41:31.807Z,5.00
2022-10-10T06:43:59.373Z,5.10
2022-10-10T06:46:27.060Z,5.30
2022-10-10T06:48:54.572Z,5.40
2022-10-10T06:51:22.484Z,5.50
2022-10-10T06:53:50.367Z,5.60
2022-10-10T06:56:27.363Z,5.70
2022-10-10T06:58:56.073Z,5.80
2022-10-10T07:01:26.191Z,5.90
2022-10-10T07:03:53.866Z,6.10
2022-10-10T07:06:21.630Z,6.20
2022-10-10T07:08:49.154Z,6.20
2022-10-10T07:11:16.738Z,6.40
2022-10-10T07:13:44.200Z,6.50
2022-10-10T07:16:12.106Z,6.60
2022-10-10T07:18:39.616Z,6.60
2022-10-10T07:21:07.662Z,6.60
2022-10-10T07:23:36.722Z,6.70
2022-10-10T07:26:13.068Z,7.00
2022-10-10T07:28:41.036Z,7.00
2022-10-10T07:31:11.263Z,7.10
2022-10-10T07:33:49.894Z,7.30
2022-10-10T07:36:18.681Z,7.40
2022-10-10T07:38:50.957Z,7.50
2022-10-10T07:41:20.049Z,7.60
2022-10-10T07:43:47.582Z,7.80
2022-10-10T07:46:20.358Z,8.00
2022-10-10T07:48:49.405Z,8.10
2022-10-10T07:51:17.515Z,8.30
2022-10-10T07:53:45.012Z,8.50
2022-10-10T07:56:12.879Z,8.70
2022-10-10T07:58:40.807Z,8.60
2022-10-10T08:01:13.148Z,8.80
2022-10-10T08:03:41.212Z,8.90
2022-10-10T08:06:13.321Z,9.20
2022-10-10T08:08:50.421Z,9.30
2022-10-10T08:11:21.624Z,9.50
2022-10-10T08:13:50.137Z,9.60
2022-10-10T08:16:18.463Z,9.70
2022-10-10T08:18:46.430Z,9.90
2022-10-10T08:21:16.254Z,10.00
2022-10-10T08:23:43.929Z,10.20
2022-10-10T08:26:14.283Z,10.50
2022-10-10T08:28:42.695Z,10.60
2022-10-10T08:31:17.322Z,10.80
2022-10-10T08:33:46.335Z,10.90
2022-10-10T08:36:21.434Z,11.10
2022-10-10T08:38:49.962Z,11.30
2022-10-10T08:41:58.160Z,11.50
2022-10-10T08:44:47.151Z,11.70
2022-10-10T08:47:51.099Z,11.90
2022-10-10T08:50:45.837Z,12.20
2022-10-10T08:53:42.364Z,12.30
2022-10-10T08:56:21.656Z,12.40
2022-10-10T08:59:01.147Z,12.70
2022-10-10T09:02:17.644Z,12.90
2022-10-10T09:04:26.238Z,13.00
2022-10-10T09:07:06.463Z,13.00
2022-10-10T09:09:58.735Z,13.20
2022-10-10T09:12:40.922Z,13.30
2022-10-10T09:15:33.724Z,13.60
2022-10-10T09:18:38.865Z,13.70
2022-10-10T09:21:30.022Z,14.00
2022-10-10T09:24:16.780Z,14.30
2022-10-10T09:27:04.245Z,14.80
2022-10-10T09:30:04.427Z,15.10
2022-10-10T09:32:42.353Z,15.40
2022-10-10T09:35:22.098Z,15.60
2022-10-10T09:38:30.745Z,15.70
2022-10-10T09:41:06.796Z,15.80
2022-10-10T09:43:35.728Z,15.80
2022-10-10T09:46:03.365Z,15.90
2022-10-10T09:48:37.169Z,16.20
2022-10-10T09:51:11.642Z,16.40
2022-10-10T09:53:39.218Z,16.60
2022-10-10T09:56:09.018Z,16.80
2022-10-10T09:58:45.030Z,16.80
2022-10-10T10:01:17.250Z,17.00
2022-10-10T10:04:30.415Z,17.20
2022-10-10T10:07:32.931Z,17.30
2022-10-10T10:10:19.149Z,17.50
2022-10-10T10:12:47.170Z,17.80
2022-10-10T10:15:22.727Z,18.00
2022-10-10T10:18:19.593Z,18.20
2022-10-10T10:21:02.809Z,18.10
2022-10-10T10:23:36.217Z,17.90
2022-10-10T10:26:24.646Z,18.40
2022-10-10T10:28:53.644Z,18.70
2022-10-10T10:31:58.751Z,18.20
2022-10-10T10:35:04.560Z,18.00
2022-10-10T10:38:14.611Z,17.80
2022-10-10T10:40:53.973Z,17.70
2022-10-10T10:43:41.676Z,17.30
2022-10-10T10:47:20.776Z,17.60
2022-10-10T10:50:42.990Z,17.90
2022-10-10T10:53:37.868Z,18.10
2022-10-10T10:56:49.459Z,18.00
2022-10-10T11:00:33.183Z,17.90
2022-10-10T11:03:14.824Z,18.00
2022-10-10T11:05:54.760Z,17.90
2022-10-10T11:08:49.362Z,17.90
2022-10-10T11:11:25.594Z,17.70
2022-10-10T11:14:42.989Z,17.90
2022-10-10T11:17:24.746Z,17.80
2022-10-10T11:20:07.459Z,17.70
2022-10-10T11:22:46.834Z,17.70
2022-10-10T11:25:48.064Z,17.70
2022-10-10T11:28:24.106Z,17.30
2022-10-10T11:31:00.717Z,17.40
2022-10-10T11:33:34.622Z,17.40
2022-10-10T11:36:35.743Z,17.50
2022-10-10T11:39:16.035Z,17.60
2022-10-10T11:42:06.945Z,17.90
2022-10-10T11:44:40.320Z,18.30
2022-10-10T11:47:11.690Z,18.60
2022-10-10T11:50:12.547Z,18.50
2022-10-10T11:52:56.677Z,18.80
2022-10-10T11:55:55.695Z,19.30
2022-10-10T11:58:56.889Z,20.10
2022-10-10T12:01:43.786Z,20.10
2022-10-10T12:04:11.257Z,19.90
2022-10-10T12:06:56.041Z,20.00
2022-10-10T12:09:49.366Z,20.90
2022-10-10T12:12:34.259Z,21.10
2022-10-10T12:15:05.908Z,21.10
2022-10-10T12:17:38.642Z,20.90
2022-10-10T12:20:36.674Z,20.70
2022-10-10T12:23:30.461Z,20.30
2022-10-10T12:25:58.511Z,20.00
2022-10-10T12:28:29.568Z,20.30
2022-10-10T12:30:58.434Z,20.70
2022-10-10T12:33:29.157Z,20.70
2022-10-10T12:35:56.657Z,20.90
2022-10-10T12:38:28.751Z,20.60
2022-10-10T12:41:14.887Z,20.30
2022-10-10T12:44:15.026Z,20.00
2022-10-10T12:46:43.511Z,19.70
2022-10-10T12:49:25.700Z,19.60
2022-10-10T12:52:12.057Z,19.40
2022-10-10T12:54:45.025Z,19.30
2022-10-10T12:57:12.614Z,19.30
2022-10-10T12:59:40.971Z,19.00
2022-10-10T13:02:26.283Z,18.80
2022-10-10T13:05:00.534Z,19.10
2022-10-10T13:07:29.047Z,19.00
2022-10-10T13:10:18.985Z,19.20
2022-10-10T13:12:46.535Z,19.20
2022-10-10T13:15:21.777Z,19.70
2022-10-10T13:17:49.259Z,19.70
2022-10-10T13:20:37.817Z,19.50
2022-10-10T13:23:11.779Z,19.50
2022-10-10T13:25:40.993Z,19.70
2022-10-10T13:28:19.100Z,19.50
2022-10-10T13:30:48.651Z,19.30
2022-10-10T13:33:32.971Z,19.00
2022-10-10T13:36:08.534Z,18.80
2022-10-10T13:38:36.153Z,18.90
2022-10-10T13:41:05.551Z,18.80
2022-10-10T13:43:33.608Z,18.60
2022-10-10T13:46:04.269Z,18.50
2022-10-10T13:48:34.646Z,18.40
2022-10-10T13:51:13.945Z,18.20
2022-10-10T13:53:53.996Z,18.20
2022-10-10T13:56:31.014Z,18.10
2022-10-10T13:59:01.389Z,18.00
2022-10-10T14:01:45.548Z,17.90
2022-10-10T14:04:45.519Z,17.90
2022-10-10T14:07:28.269Z,17.70
2022-10-10T14:10:20.111Z,17.90
2022-10-10T14:12:55.722Z,17.80
2022-10-10T14:15:41.245Z,17.80
2022-10-10T14:18:26.993Z,17.70
2022-10-10T14:20:55.622Z,17.80
2022-10-10T14:23:23.429Z,17.80
2022-10-10T14:25:51.315Z,17.90
2022-10-10T14:28:26.458Z,17.90
2022-10-10T14:30:54.092Z,17.90
2022-10-10T14:33:22.921Z,18.30
2022-10-10T14:35:52.601Z,19.20
2022-10-10T14:38:20.765Z,20.20
2022-10-10T14:40:50.706Z,20.90
2022-10-10T14:43:20.789Z,21.50
2022-10-10T14:45:51.625Z,22.10
2022-10-10T14:48:19.573Z,22.70
2022-10-10T14:50:49.434Z,22.80
2022-10-10T14:53:17.278Z,23.10
2022-10-10T14:55:46.076Z,23.00
2022-10-10T14:58:22.174Z,23.00
2022-10-10T15:00:52.588Z,22.20
2022-10-10T15:03:20.540Z,21.30
2022-10-10T15:05:51.458Z,21.00
2022-10-10T15:08:19.537Z,20.60
2022-10-10T15:10:47.850Z,19.80
2022-10-10T15:13:16.535Z,20.00
2022-10-10T15:15:44.102Z,19.80
2022-10-10T15:18:32.042Z,19.60
2022-10-10T15:20:59.527Z,19.20
2022-10-10T15:23:27.280Z,19.00
2022-10-10T15:25:54.717Z,18.70
2022-10-10T15:28:22.305Z,18.50
2022-10-10T15:30:49.868Z,18.10
2022-10-10T15:33:17.435Z,17.80
2022-10-10T15:36:07.802Z,17.70
2022-10-10T15:38:35.420Z,17.20
2022-10-10T15:41:07.242Z,16.80
2022-10-10T15:44:01.025Z,16.80
2022-10-10T15:46:30.285Z,16.50
2022-10-10T15:49:02.448Z,16.30
2022-10-10T15:51:31.536Z,16.20
2022-10-10T15:54:00.402Z,16.00
2022-10-10T15:56:29.807Z,15.80
2022-10-10T15:58:59.138Z,15.80
2022-10-10T16:01:28.167Z,15.60
2022-10-10T16:03:56.450Z,15.60
2022-10-10T16:06:25.606Z,15.50
2022-10-10T16:09:10.073Z,15.40
2022-10-10T16:11:41.362Z,15.30
2022-10-10T16:14:08.918Z,15.10
2022-10-10T16:16:36.430Z,15.00
2022-10-10T16:19:04.094Z,14.90
2022-10-10T16:21:33.658Z,14.80
2022-10-10T16:24:01.365Z,14.80
2022-10-10T16:26:35.557Z,14.70
2022-10-10T16:29:06.062Z,14.60
2022-10-10T16:31:39.216Z,14.40
2022-10-10T16:34:07.971Z,14.20
2022-10-10T16:36:37.246Z,14.10
2022-10-10T16:39:05.165Z,14.00
2022-10-10T16:41:47.466Z,13.90
2022-10-10T16:44:17.248Z,13.80
2022-10-10T16:46:44.994Z,13.70
2022-10-10T16:49:16.442Z,13.70
2022-10-10T16:51:44.346Z,13.60
2022-10-10T16:54:11.878Z,13.50
2022-10-10T16:56:39.381Z,13.40
2022-10-10T16:59:06.959Z,13.20
2022-10-10T17:01:35.439Z,13.10
2022-10-10T17:04:03.946Z,13.10
2022-10-10T17:06:37.583Z,13.00
2022-10-10T17:09:07.737Z,12.90
2022-10-10T17:11:35.835Z,12.90
2022-10-10T17:14:04.293Z,12.80
2022-10-10T17:19:19.747Z,12.60
2022-10-10T17:21:47.207Z,12.60
2022-10-10T17:24:14.710Z,12.50
2022-10-10T17:26:42.252Z,12.50
2022-10-10T17:29:09.793Z,12.60
2022-10-10T17:31:37.342Z,12.60
2022-10-10T17:34:04.797Z,12.60
2022-10-10T17:36:32.406Z,12.50
2022-10-10T17:39:03.038Z,12.50
2022-10-10T17:41:30.726Z,12.60
2022-10-10T17:43:59.605Z,12.50
2022-10-10T17:46:34.702Z,12.50
2022-10-10T17:49:06.455Z,12.50
2022-10-10T17:51:36.302Z,12.50
2022-10-10T17:54:06.536Z,12.40
2022-10-10T17:56:35.207Z,12.30
2022-10-10T17:59:06.506Z,12.30
2022-10-10T18:01:37.026Z,12.30
2022-10-10T18:04:05.090Z,12.30
2022-10-10T18:06:33.221Z,12.30
2022-10-10T18:09:00.999Z,12.20
2022-10-10T18:11:32.389Z,12.20
2022-10-10T18:14:00.964Z,12.20
2022-10-10T18:16:35.993Z,12.10
2022-10-10T18:19:08.846Z,12.10
2022-10-10T18:21:36.567Z,12.00
2022-10-10T18:24:04.390Z,11.90
2022-10-10T18:26:32.240Z,11.80
2022-10-10T18:29:00.124Z,11.80
2022-10-10T18:31:34.321Z,11.80
2022-10-10T18:34:04.764Z,11.70
2022-10-10T18:36:35.968Z,11.70
2022-10-10T18:39:15.348Z,11.80
2022-10-10T18:41:43.440Z,11.80
2022-10-10T18:44:18.960Z,11.80
2022-10-10T18:46:46.598Z,11.80
2022-10-10T18:49:14.772Z,11.90
2022-10-10T18:51:43.548Z,11.90
2022-10-10T18:54:16.156Z,12.00
2022-10-10T18:56:44.637Z,12.00
2022-10-10T18:59:22.370Z,12.00
2022-10-10T19:01:52.580Z,12.00
2022-10-10T19:04:20.882Z,11.90
2022-10-10T19:06:54.495Z,11.90
2022-10-10T19:09:24.823Z,11.80
2022-10-10T19:11:53.563Z,11.90
2022-10-10T19:14:21.158Z,11.80
2022-10-10T19:16:49.282Z,11.70
2022-10-10T19:19:19.353Z,11.70
2022-10-10T19:21:48.687Z,11.60
2022-10-10T19:24:21.087Z,11.50
2022-10-10T19:26:56.918Z,11.40
2022-10-10T19:29:26.643Z,11.30
2022-10-10T19:31:54.662Z,11.20
2022-10-10T19:34:22.838Z,11.20
2022-10-10T19:36:50.416Z,11.20
2022-10-10T19:39:18.241Z,11.10
2022-10-10T19:41:45.744Z,11.10
2022-10-10T19:44:13.449Z,11.10
2022-10-10T19:46:40.988Z,10.90
2022-10-10T19:49:09.993Z,10.80
2022-10-10T19:51:37.458Z,10.80
2022-10-10T19:54:04.999Z,10.60
2022-10-10T19:56:32.485Z,10.50
2022-10-10T19:59:01.328Z,10.30
2022-10-10T20:01:30.575Z,10.40
2022-10-10T20:03:59.286Z,10.50
2022-10-10T20:06:27.377Z,10.50
2022-10-10T20:08:55.538Z,10.40
2022-10-10T20:11:23.738Z,10.30
2022-10-10T20:13:54.243Z,10.30
2022-10-10T20:16:24.441Z,10.20
2022-10-10T20:18:52.505Z,10.20
2022-10-10T20:21:24.544Z,10.10
2022-10-10T20:23:52.552Z,10.00
2022-10-10T20:26:22.921Z,9.70
2022-10-10T20:28:52.139Z,9.70
2022-10-10T20:31:23.758Z,9.70
2022-10-10T20:33:54.885Z,9.80
2022-10-10T20:36:23.728Z,9.70
2022-10-10T20:38:57.041Z,9.50
2022-10-10T20:41:27.037Z,9.40
2022-10-10T20:44:00.637Z,9.40
2022-10-10T20:46:33.185Z,9.40
2022-10-10T20:49:02.814Z,9.30
2022-10-10T20:51:30.588Z,9.30
2022-10-10T20:54:03.687Z,9.40
2022-10-10T20:56:33.862Z,9.40
2022-10-10T20:59:02.096Z,9.40
2022-10-10T21:01:30.931Z,9.50
2022-10-10T21:03:59.281Z,9.40
2022-10-10T21:06:30.875Z,9.40
2022-10-10T21:09:01.979Z,9.40
2022-10-10T21:11:29.656Z,9.50
2022-10-10T21:13:59.591Z,9.50
2022-10-10T21:16:31.177Z,9.40
2022-10-10T21:18:59.432Z,9.40
2022-10-10T21:21:31.018Z,9.50
2022-10-10T21:23:58.721Z,9.60
2022-10-10T21:26:28.498Z,9.70
2022-10-10T21:28:57.253Z,9.70
2022-10-10T21:31:35.544Z,9.70
2022-10-10T21:34:07.315Z,9.70
2022-10-10T21:36:36.192Z,9.60
2022-10-10T21:39:07.059Z,9.60
2022-10-10T21:41:35.763Z,9.70
2022-10-10T21:44:03.701Z,9.70
2022-10-10T21:46:36.754Z,9.80
2022-10-10T21:49:09.045Z,9.90
2022-10-10T21:51:43.527Z,9.90
2022-10-10T21:54:11.846Z,9.80
2022-10-10T21:56:39.636Z,9.90
2022-10-10T21:59:07.341Z,9.80
2022-10-10T22:01:35.166Z,9.80
2022-10-10T22:04:03.164Z,9.80
2022-10-10T22:06:31.793Z,9.80
2022-10-10T22:09:01.161Z,9.80
2022-10-10T22:11:32.760Z,9.90
2022-10-10T22:14:02.760Z,9.90
2022-10-10T22:16:32.562Z,9.90
2022-10-10T22:19:00.865Z,9.80
2022-10-10T22:21:32.191Z,9.80
2022-10-10T22:24:02.986Z,9.80
2022-10-10T22:26:31.559Z,9.80
2022-10-10T22:28:59.694Z,9.90
2022-10-10T22:31:27.737Z,9.80
2022-10-10T22:33:55.220Z,9.80
2022-10-10T22:36:22.664Z,9.80
2022-10-10T22:38:50.163Z,9.70
2022-10-10T22:41:17.711Z,9.80
2022-10-10T22:43:45.192Z,9.80
2022-10-10T22:46:13.912Z,9.80
2022-10-10T22:48:41.520Z,9.90
2022-10-10T22:51:16.444Z,9.90
2022-10-10T22:53:46.276Z,9.80
2022-10-10T22:56:19.382Z,9.90
2022-10-10T22:58:48.580Z,9.80
2022-10-10T23:01:20.267Z,9.80
2022-10-10T23:03:48.083Z,9.70
2022-10-10T23:06:15.913Z,9.50
2022-10-10T23:08:43.399Z,9.50
2022-10-10T23:11:10.943Z,9.40
2022-10-10T23:13:38.605Z,9.30
2022-10-10T23:16:06.865Z,9.10
2022-10-10T23:18:34.739Z,9.00
2022-10-10T23:21:02.256Z,9.10
2022-10-10T23:23:30.075Z,9.00
2022-10-10T23:25:57.518Z,8.80
2022-10-10T23:28:25.037Z,8.80
2022-10-10T23:30:52.546Z,8.70
2022-10-10T23:33:20.062Z,8.70
2022-10-10T23:36:01.907Z,8.60
2022-10-10T23:38:29.818Z,8.50
2022-10-10T23:40:57.502Z,8.40
2022-10-10T23:43:25.487Z,8.40
2022-10-10T23:45:53.083Z,8.30
2022-10-10T23:48:21.058Z,8.30
2022-10-10T23:50:48.506Z,8.40
2022-10-10T23:53:15.998Z,8.40
2022-10-10T23:55:43.527Z,8.40
2022-10-10T23:58:11.051Z,8.40
